Time;durP1;ratioP1;P1;durP2;ratioP2;P2;SDS_P1;SDS_P2;PMS_P1;PMS_P2;Temp;Humidity;BMP_temperature;BMP_pressure;BME280_temperature;BME280_humidity;BME280_pressure;Samples;Min_cycle;Max_cycle;Signal;HPM_P1;HPM_P2
2022/07/21 00:01:34;;;;;;;34.23;25.10;;;19.20;99.90;;;;;;5011198;28;20215;-76
2022/07/21 00:04:00;;;;;;;32.57;25.27;;;19.20;99.90;;;;;;4994052;28;20180;-76
2022/07/21 00:06:26;;;;;;;31.10;27.20;;;19.30;99.90;;;;;;4993693;28;20939;-76
2022/07/21 00:08:51;;;;;;;32.03;25.97;;;19.20;99.90;;;;;;5011210;28;20180;-76
2022/07/21 00:11:17;;;;;;;34.40;25.20;;;19.20;99.90;;;;;;5010832;28;20275;-76
2022/07/21 00:13:43;;;;;;;22.93;20.50;;;19.10;99.90;;;;;;5010835;28;20193;-76
2022/07/21 00:16:09;;;;;;;30.60;23.67;;;19.10;99.90;;;;;;4993121;28;20583;-76
2022/07/21 00:18:34;;;;;;;31.57;24.67;;;19.20;99.90;;;;;;5010612;28;20436;-76
2022/07/21 00:21:00;;;;;;;35.37;23.37;;;19.30;99.90;;;;;;5010754;28;20181;-76
2022/07/21 00:23:27;;;;;;;27.80;24.77;;;19.40;99.90;;;;;;4993068;28;20183;-75
2022/07/21 00:25:53;;;;;;;33.67;25.73;;;19.40;99.90;;;;;;5010690;28;20457;-75
2022/07/21 00:28:20;;;;;;;26.93;21.67;;;19.50;99.90;;;;;;4992628;28;20471;-75
2022/07/21 00:30:46;;;;;;;37.33;26.17;;;19.50;99.90;;;;;;5010985;28;21035;-75
2022/07/21 00:33:12;;;;;;;31.47;25.60;;;19.40;99.90;;;;;;5010441;28;20503;-75
2022/07/21 00:35:37;;;;;;;25.87;21.60;;;19.50;99.90;;;;;;5010387;28;20587;-75
2022/07/21 00:38:03;;;;;;;28.10;23.23;;;19.50;99.90;;;;;;5010254;28;20205;-75
2022/07/21 00:40:29;;;;;;;27.50;22.50;;;19.50;99.90;;;;;;4992487;28;20232;-76
2022/07/21 00:42:56;;;;;;;29.00;22.00;;;19.50;99.90;;;;;;5010322;28;20453;-75
2022/07/21 00:45:22;;;;;;;29.13;21.60;;;19.50;99.90;;;;;;5010582;28;20455;-76
2022/07/21 00:47:48;;;;;;;24.13;21.50;;;19.50;99.90;;;;;;4992560;28;20444;-76
2022/07/21 00:50:16;;;;;;;31.23;23.23;;;19.60;99.90;;;;;;5010357;28;20482;-76
2022/07/21 00:52:42;;;;;;;25.30;19.80;;;19.50;99.90;;;;;;4977881;28;20236;-76
2022/07/21 00:55:11;;;;;;;25.27;20.47;;;19.40;99.90;;;;;;5010336;28;20468;-76
2022/07/21 00:57:37;;;;;;;21.00;18.77;;;19.40;99.90;;;;;;4976358;28;20533;-77
2022/07/21 01:00:09;;;;;;;23.53;19.03;;;19.30;99.90;;;;;;5010369;28;20428;-78
2022/07/21 01:02:36;;;;;;;25.40;21.30;;;19.30;99.90;;;;;;4992209;28;20447;-76
2022/07/21 01:05:04;;;;;;;29.13;20.67;;;19.30;99.90;;;;;;4976285;28;20926;-76
2022/07/21 01:07:30;;;;;;;27.67;19.13;;;19.20;99.90;;;;;;5009883;28;20432;-75
2022/07/21 01:09:56;;;;;;;18.00;16.10;;;19.20;99.90;;;;;;4992102;28;20474;-75
2022/07/21 01:12:22;;;;;;;19.70;15.70;;;19.30;99.90;;;;;;4991885;28;20195;-78
2022/07/21 01:14:48;;;;;;;24.30;18.20;;;19.40;99.90;;;;;;4975689;28;20472;-77
2022/07/21 01:17:13;;;;;;;21.77;19.03;;;19.40;99.90;;;;;;5009597;28;20292;-78
2022/07/21 01:19:39;;;;;;;22.20;18.87;;;19.50;99.90;;;;;;4991980;28;20864;-78
2022/07/21 01:22:06;;;;;;;21.07;18.43;;;19.60;99.90;;;;;;5009746;28;20709;-78
2022/07/21 01:24:32;;;;;;;21.83;15.93;;;19.60;99.90;;;;;;4991592;28;20188;-78
2022/07/21 01:26:57;;;;;;;27.53;16.10;;;19.60;99.90;;;;;;5009742;28;20869;-78
2022/07/21 01:29:25;;;;;;;25.00;18.57;;;19.60;99.90;;;;;;5009602;28;20189;-78
2022/07/21 01:31:51;;;;;;;22.50;16.50;;;19.50;99.90;;;;;;5009465;28;20181;-78
2022/07/21 01:34:18;;;;;;;25.30;20.33;;;19.50;99.90;;;;;;5009520;28;20901;-78
2022/07/21 01:36:44;;;;;;;22.07;18.03;;;19.40;99.90;;;;;;5009254;28;20479;-78
2022/07/21 01:41:54;;;;;;;19.60;17.50;;;19.40;99.90;;;;;;5009529;28;20447;-78
2022/07/21 01:44:20;;;;;;;25.83;19.20;;;19.40;99.90;;;;;;4991310;28;20478;-77
2022/07/21 01:46:49;;;;;;;19.10;16.70;;;19.40;99.90;;;;;;5009633;28;20204;-77
2022/07/21 01:49:17;;;;;;;23.10;14.80;;;19.40;99.90;;;;;;5009490;28;20450;-78
2022/07/21 01:51:43;;;;;;;22.80;15.87;;;19.40;99.90;;;;;;5009381;28;20483;-77
2022/07/21 01:54:09;;;;;;;23.70;16.63;;;19.50;99.90;;;;;;4991507;28;20420;-78
2022/07/21 01:56:36;;;;;;;32.20;18.20;;;19.50;99.90;;;;;;4975608;28;20574;-77
2022/07/21 01:59:02;;;;;;;19.73;16.40;;;19.50;99.90;;;;;;5009293;28;20471;-76
2022/07/21 02:01:29;;;;;;;19.80;15.50;;;19.50;99.90;;;;;;5008359;28;20801;-77
2022/07/21 02:03:56;;;;;;;17.83;15.93;;;19.50;99.90;;;;;;5009251;28;20420;-77
2022/07/21 02:06:22;;;;;;;16.67;14.83;;;19.60;99.90;;;;;;5009140;28;20416;-76
2022/07/21 02:08:48;;;;;;;14.60;12.83;;;19.50;99.90;;;;;;5008634;28;20444;-76
2022/07/21 02:11:15;;;;;;;17.27;13.80;;;19.40;99.90;;;;;;4990835;28;21063;-76
2022/07/21 02:13:42;;;;;;;13.53;11.10;;;19.40;99.90;;;;;;4990955;28;20205;-77
2022/07/21 02:16:08;;;;;;;15.57;10.90;;;19.30;99.90;;;;;;4990864;28;20522;-76
2022/07/21 02:18:34;;;;;;;15.60;11.73;;;19.20;99.90;;;;;;4990873;28;20536;-78
2022/07/21 02:21:00;;;;;;;14.20;12.70;;;19.20;99.90;;;;;;4990925;28;20507;-77
2022/07/21 02:23:26;;;;;;;13.93;12.23;;;19.20;99.90;;;;;;4991157;28;20458;-75
2022/07/21 02:25:53;;;;;;;12.10;10.90;;;19.20;99.90;;;;;;5008750;28;20432;-75
2022/07/21 02:28:19;;;;;;;16.80;12.77;;;19.20;99.90;;;;;;4990808;28;20455;-77
2022/07/21 02:30:46;;;;;;;13.60;11.40;;;19.20;99.90;;;;;;4991167;28;20487;-77
2022/07/21 02:33:12;;;;;;;14.23;11.30;;;19.20;99.90;;;;;;5008946;28;20787;-77
2022/07/21 02:35:38;;;;;;;16.13;11.83;;;19.20;99.90;;;;;;5008634;28;20472;-77
2022/07/21 02:38:04;;;;;;;19.07;10.90;;;19.20;99.90;;;;;;4991019;28;20444;-77
2022/07/21 02:40:30;;;;;;;12.43;10.50;;;19.20;99.90;;;;;;5009025;28;20519;-75
2022/07/21 02:42:56;;;;;;;14.33;11.00;;;19.10;99.90;;;;;;5008599;28;20408;-75
2022/07/21 02:45:21;;;;;;;12.10;9.77;;;19.10;99.90;;;;;;4974673;28;20501;-77
2022/07/21 02:47:49;;;;;;;13.80;11.60;;;19.00;99.90;;;;;;5008880;28;20216;-78
2022/07/21 02:50:16;;;;;;;11.77;10.57;;;19.00;99.90;;;;;;5009025;28;20193;-80
2022/07/21 02:52:42;;;;;;;12.93;11.30;;;19.00;99.90;;;;;;4992265;28;20433;-77
2022/07/21 02:55:08;;;;;;;18.17;11.23;;;19.00;99.90;;;;;;5008965;28;20467;-78
2022/07/21 02:57:34;;;;;;;12.70;10.80;;;19.10;99.90;;;;;;4991170;28;20205;-78
2022/07/21 03:00:00;;;;;;;14.63;11.27;;;19.10;99.90;;;;;;5008728;28;20569;-78
2022/07/21 03:02:25;;;;;;;15.03;11.43;;;19.10;99.90;;;;;;4991240;28;20560;-78
2022/07/21 03:04:51;;;;;;;14.00;10.20;;;19.10;99.90;;;;;;4975564;28;20217;-77
2022/07/21 03:07:17;;;;;;;11.60;9.80;;;19.10;99.90;;;;;;5009391;28;20308;-77
2022/07/21 03:09:42;;;;;;;13.37;10.87;;;19.00;99.90;;;;;;4991756;28;20228;-76
2022/07/21 03:12:08;;;;;;;12.07;9.53;;;19.00;99.90;;;;;;4991761;28;20190;-77
2022/07/21 03:14:33;;;;;;;11.07;9.93;;;19.00;99.90;;;;;;5013007;28;20209;-77
2022/07/21 03:17:02;;;;;;;11.60;9.90;;;19.00;99.90;;;;;;4996042;28;20208;-77
2022/07/21 03:19:28;;;;;;;14.30;10.73;;;19.00;99.90;;;;;;5013618;28;20184;-76
2022/07/21 03:21:53;;;;;;;12.83;10.40;;;19.00;99.90;;;;;;5013059;28;20412;-77
2022/07/21 03:24:19;;;;;;;14.00;9.90;;;19.00;99.90;;;;;;4994715;28;20414;-76
2022/07/21 03:26:45;;;;;;;11.80;10.60;;;19.10;99.90;;;;;;4978674;28;20205;-77
2022/07/21 03:29:10;;;;;;;13.20;11.27;;;19.00;99.90;;;;;;5014533;28;20228;-76
2022/07/21 03:31:36;;;;;;;11.13;8.73;;;19.00;99.90;;;;;;4996326;28;20185;-76
2022/07/21 03:34:02;;;;;;;12.20;8.83;;;19.00;99.90;;;;;;4979824;28;20255;-77
2022/07/21 03:36:27;;;;;;;10.87;9.80;;;19.10;99.90;;;;;;4994660;28;20236;-75
2022/07/21 03:38:53;;;;;;;16.27;9.50;;;19.10;99.90;;;;;;5012472;28;20658;-75
2022/07/21 03:41:18;;;;;;;9.37;8.47;;;19.10;99.90;;;;;;4994625;28;20673;-76
2022/07/21 03:43:44;;;;;;;14.10;9.27;;;19.20;99.90;;;;;;4995293;28;20181;-75
2022/07/21 03:46:10;;;;;;;8.97;8.07;;;19.10;99.90;;;;;;4994973;28;20991;-76
2022/07/21 03:48:35;;;;;;;10.80;8.43;;;19.20;99.90;;;;;;5011816;28;20208;-76
2022/07/21 03:51:01;;;;;;;9.97;8.97;;;19.20;99.90;;;;;;4977893;28;20188;-76
2022/07/21 03:53:27;;;;;;;10.83;9.70;;;19.20;99.90;;;;;;5011957;28;20271;-76
2022/07/21 03:55:52;;;;;;;11.90;9.00;;;19.20;99.90;;;;;;5011613;28;20308;-76
2022/07/21 03:58:18;;;;;;;11.00;9.77;;;19.20;99.90;;;;;;4993495;28;20219;-78
2022/07/21 04:00:45;;;;;;;10.93;9.40;;;19.20;99.90;;;;;;4993615;28;20214;-78
2022/07/21 04:03:11;;;;;;;10.77;9.63;;;19.20;99.90;;;;;;5011141;28;20313;-77
2022/07/21 04:05:38;;;;;;;10.40;9.40;;;19.20;99.90;;;;;;5011102;28;20459;-76
2022/07/21 04:08:04;;;;;;;14.13;10.07;;;19.20;99.90;;;;;;4993302;28;20484;-76
2022/07/21 04:10:32;;;;;;;12.30;10.60;;;19.20;99.90;;;;;;5010890;28;21006;-76
2022/07/21 04:13:00;;;;;;;11.97;10.83;;;19.20;99.90;;;;;;5010815;28;20436;-76
2022/07/21 04:15:25;;;;;;;12.80;10.60;;;19.20;99.90;;;;;;5010786;28;20529;-76
2022/07/21 04:17:52;;;;;;;12.43;10.80;;;19.20;99.90;;;;;;4993024;28;20448;-76
2022/07/21 04:20:17;;;;;;;13.10;11.03;;;19.30;99.90;;;;;;4992890;28;20275;-75
2022/07/21 04:22:45;;;;;;;13.73;10.20;;;19.20;99.90;;;;;;5010652;28;20547;-76
2022/07/21 04:25:11;;;;;;;12.50;10.30;;;19.20;99.90;;;;;;5010059;28;20419;-77
2022/07/21 04:27:37;;;;;;;15.83;11.20;;;19.30;99.90;;;;;;4992642;28;21032;-77
2022/07/21 04:30:05;;;;;;;14.43;11.93;;;19.30;99.90;;;;;;5010548;28;20424;-77
2022/07/21 04:32:31;;;;;;;13.13;11.53;;;19.30;99.90;;;;;;4975389;28;20443;-78
2022/07/21 04:34:56;;;;;;;17.10;11.60;;;19.40;99.90;;;;;;4991238;28;20471;-78
2022/07/21 04:37:22;;;;;;;13.30;11.50;;;19.30;99.90;;;;;;4975111;28;20452;-78
2022/07/21 04:39:49;;;;;;;14.80;12.00;;;19.40;99.90;;;;;;5008823;28;20866;-78
2022/07/21 04:42:14;;;;;;;15.63;11.20;;;19.40;99.90;;;;;;5008780;28;20238;-78
2022/07/21 04:44:40;;;;;;;16.00;11.10;;;19.40;99.90;;;;;;4990874;28;20427;-78
2022/07/21 04:47:06;;;;;;;12.90;10.67;;;19.40;99.90;;;;;;4991091;28;20728;-78
2022/07/21 04:49:31;;;;;;;15.20;11.87;;;19.40;99.90;;;;;;5008802;28;20689;-78
2022/07/21 04:51:57;;;;;;;17.20;11.70;;;19.50;99.90;;;;;;4990975;28;20191;-78
2022/07/21 04:54:23;;;;;;;15.10;11.20;;;19.50;99.90;;;;;;4991029;28;20192;-78
2022/07/21 04:56:49;;;;;;;16.23;12.00;;;19.50;99.90;;;;;;5008409;28;20221;-77
2022/07/21 04:59:14;;;;;;;12.47;9.93;;;19.50;99.90;;;;;;4990659;28;20292;-78
2022/07/21 05:01:40;;;;;;;12.93;10.83;;;19.30;99.90;;;;;;4990601;28;20224;-78
2022/07/21 05:04:07;;;;;;;13.30;11.10;;;19.60;99.90;;;;;;5008739;28;20182;-78
2022/07/21 05:06:33;;;;;;;15.90;12.30;;;19.70;99.90;;;;;;4990605;28;20428;-79
2022/07/21 05:08:58;;;;;;;15.63;11.27;;;19.70;99.90;;;;;;4990618;28;20432;-78
2022/07/21 05:11:24;;;;;;;12.83;11.47;;;19.70;99.90;;;;;;4990620;28;20439;-78
2022/07/21 05:13:50;;;;;;;15.17;12.03;;;19.70;99.90;;;;;;5008459;28;20761;-77
2022/07/21 05:16:16;;;;;;;14.93;12.30;;;19.70;99.90;;;;;;4990475;28;20470;-78
2022/07/21 05:18:42;;;;;;;14.87;11.70;;;19.70;99.90;;;;;;5008936;28;20232;-78
2022/07/21 05:21:08;;;;;;;13.80;12.30;;;19.60;99.90;;;;;;5008466;28;20181;-78
2022/07/21 05:23:33;;;;;;;16.03;13.27;;;19.60;99.90;;;;;;4990769;28;20180;-79
2022/07/21 05:25:59;;;;;;;16.60;12.70;;;19.60;99.90;;;;;;4990549;28;20679;-79
2022/07/21 05:28:27;;;;;;;17.60;13.40;;;19.60;99.90;;;;;;4974250;28;20539;-78
2022/07/21 05:30:53;;;;;;;13.53;12.00;;;19.50;99.90;;;;;;5008417;28;20180;-79
2022/07/21 05:33:19;;;;;;;18.07;12.67;;;19.50;99.90;;;;;;5008473;28;20420;-78
2022/07/21 05:35:44;;;;;;;16.93;12.30;;;19.50;99.90;;;;;;4990152;28;20301;-79
2022/07/21 05:38:10;;;;;;;16.50;12.10;;;19.60;99.90;;;;;;5007946;28;20752;-79
2022/07/21 05:40:36;;;;;;;13.77;11.73;;;19.70;99.90;;;;;;4974210;28;20201;-79
2022/07/21 05:43:01;;;;;;;18.17;12.50;;;19.70;99.90;;;;;;4974438;28;20192;-78
2022/07/21 05:45:27;;;;;;;12.80;11.50;;;19.70;99.90;;;;;;4974366;28;20221;-79
2022/07/21 05:47:53;;;;;;;15.57;12.10;;;19.70;99.90;;;;;;4990698;28;20826;-78
2022/07/21 05:50:18;;;;;;;13.30;11.20;;;19.70;99.90;;;;;;4974115;28;20185;-78
2022/07/21 05:52:44;;;;;;;12.80;11.50;;;19.80;99.90;;;;;;4990707;28;20284;-79
2022/07/21 05:55:10;;;;;;;14.20;10.80;;;19.90;99.90;;;;;;5008139;28;20215;-79
2022/07/21 05:57:37;;;;;;;18.23;12.43;;;19.90;99.90;;;;;;5008171;28;20209;-78
2022/07/21 06:00:04;;;;;;;15.30;11.47;;;20.00;99.90;;;;;;4990003;28;20412;-78
2022/07/21 06:02:31;;;;;;;17.03;11.73;;;20.00;99.90;;;;;;5007999;28;20412;-79
2022/07/21 06:04:56;;;;;;;13.97;11.73;;;20.10;99.90;;;;;;4990754;28;20432;-78
2022/07/21 06:07:22;;;;;;;13.90;12.00;;;20.20;99.90;;;;;;4990651;28;20951;-79
2022/07/21 06:09:48;;;;;;;14.13;10.87;;;20.40;99.90;;;;;;5008506;28;20275;-79
2022/07/21 06:12:14;;;;;;;13.60;12.27;;;20.50;99.90;;;;;;4974778;28;20184;-78
2022/07/21 06:14:40;;;;;;;15.57;11.90;;;20.50;99.90;;;;;;4991068;28;20424;-79
2022/07/21 06:17:05;;;;;;;15.40;12.37;;;20.70;99.90;;;;;;4975158;28;20297;-78
2022/07/21 06:19:31;;;;;;;15.23;11.93;;;20.90;99.90;;;;;;4975110;28;20240;-79
2022/07/21 06:21:57;;;;;;;15.30;11.40;;;20.90;99.90;;;;;;4959273;28;20235;-79
2022/07/21 06:24:23;;;;;;;14.70;11.90;;;20.90;99.90;;;;;;5009128;28;20499;-79
2022/07/21 06:26:48;;;;;;;14.57;11.67;;;21.00;99.90;;;;;;5009024;28;20261;-80
2022/07/21 06:29:14;;;;;;;17.30;12.37;;;20.90;99.90;;;;;;4975051;28;20858;-78
2022/07/21 06:31:40;;;;;;;19.40;12.97;;;20.90;99.90;;;;;;5008774;28;20185;-80
2022/07/21 06:34:06;;;;;;;13.33;11.90;;;21.10;99.90;;;;;;4991088;28;20189;-78
2022/07/21 06:36:32;;;;;;;16.03;11.10;;;21.00;99.90;;;;;;5008379;28;20205;-79
2022/07/21 06:38:57;;;;;;;15.23;11.70;;;21.10;99.90;;;;;;4974160;28;20190;-78
2022/07/21 06:41:23;;;;;;;12.47;11.17;;;21.20;99.90;;;;;;4990461;28;20528;-79
2022/07/21 06:43:49;;;;;;;12.70;11.33;;;21.30;99.90;;;;;;4974446;28;20182;-78
2022/07/21 06:46:15;;;;;;;11.13;9.17;;;21.40;99.90;;;;;;4990809;28;20244;-79
2022/07/21 06:48:40;;;;;;;11.20;9.27;;;21.50;99.90;;;;;;4992707;28;20211;-80
2022/07/21 06:51:06;;;;;;;13.53;10.90;;;21.60;99.90;;;;;;4978308;28;20272;-79
2022/07/21 06:53:31;;;;;;;18.90;10.60;;;21.60;99.90;;;;;;4978079;28;20575;-79
2022/07/21 06:55:57;;;;;;;11.57;10.37;;;21.60;99.90;;;;;;4994529;28;20707;-78
2022/07/21 06:58:24;;;;;;;10.40;9.40;;;21.60;99.90;;;;;;4979002;28;20672;-80
2022/07/21 07:00:51;;;;;;;13.80;11.00;;;21.60;99.90;;;;;;4994694;28;20185;-79
2022/07/21 07:03:18;;;;;;;14.10;11.80;;;21.60;99.90;;;;;;4962472;28;20443;-79
2022/07/21 07:05:45;;;;;;;16.43;12.07;;;21.60;99.90;;;;;;5012409;28;20447;-77
2022/07/21 07:08:12;;;;;;;16.27;11.10;;;21.60;99.90;;;;;;4979644;28;20459;-78
2022/07/21 07:10:40;;;;;;;14.00;12.40;;;21.50;99.90;;;;;;5013627;28;20418;-78
2022/07/21 07:13:06;;;;;;;12.30;11.00;;;21.60;99.90;;;;;;5013368;28;20786;-77
2022/07/21 07:15:31;;;;;;;14.37;11.43;;;21.60;99.90;;;;;;5013672;28;21035;-77
2022/07/21 07:17:57;;;;;;;15.80;12.10;;;21.60;99.90;;;;;;4996004;28;20440;-77
2022/07/21 07:20:23;;;;;;;12.80;11.47;;;21.70;99.90;;;;;;5013652;28;20185;-77
2022/07/21 07:22:49;;;;;;;15.10;11.50;;;21.70;99.90;;;;;;4996521;28;20803;-77
2022/07/21 07:25:17;;;;;;;12.50;10.53;;;21.70;99.90;;;;;;4996820;28;20880;-77
2022/07/21 07:27:47;;;;;;;15.20;10.97;;;21.60;99.90;;;;;;5014598;28;20198;-77
2022/07/21 07:30:13;;;;;;;10.50;9.40;;;21.60;99.90;;;;;;5014784;28;20429;-77
2022/07/21 07:32:40;;;;;;;10.90;9.53;;;21.60;99.90;;;;;;4997674;28;20438;-78
2022/07/21 07:35:08;;;;;;;12.97;10.50;;;21.70;99.90;;;;;;4998472;28;20556;-78
2022/07/21 07:37:35;;;;;;;12.00;10.77;;;21.80;99.90;;;;;;4998686;28;21057;-78
2022/07/21 07:40:02;;;;;;;10.77;9.23;;;21.90;99.90;;;;;;4983518;28;20441;-78
2022/07/21 07:42:28;;;;;;;12.37;10.17;;;22.00;99.90;;;;;;4999355;28;20448;-78
2022/07/21 07:44:54;;;;;;;11.80;9.90;;;22.20;99.90;;;;;;4997809;28;20432;-78
2022/07/21 07:47:19;;;;;;;9.60;8.30;;;22.30;99.90;;;;;;4982218;28;20213;-78
2022/07/21 07:49:45;;;;;;;13.40;8.23;;;22.20;99.90;;;;;;4998434;28;20209;-78
2022/07/21 07:52:11;;;;;;;11.77;8.87;;;22.20;99.90;;;;;;5017257;28;20190;-78
2022/07/21 07:54:36;;;;;;;12.00;8.40;;;22.10;99.90;;;;;;4998120;28;20185;-78
2022/07/21 07:57:02;;;;;;;13.00;9.60;;;22.20;99.90;;;;;;4999030;28;20221;-78
2022/07/21 07:59:28;;;;;;;12.00;9.63;;;22.30;99.90;;;;;;4981150;28;20191;-78
2022/07/21 08:01:53;;;;;;;9.90;8.20;;;22.30;99.90;;;;;;4999026;28;20244;-78
2022/07/21 08:04:19;;;;;;;11.27;8.23;;;22.20;99.90;;;;;;4998255;28;20191;-78
2022/07/21 08:06:45;;;;;;;14.97;9.60;;;22.30;99.90;;;;;;4982947;28;20807;-78
2022/07/21 08:09:10;;;;;;;10.20;7.77;;;22.30;99.90;;;;;;4999889;28;20183;-78
2022/07/21 08:11:36;;;;;;;8.00;7.20;;;22.30;99.90;;;;;;4998899;28;20215;-79
2022/07/21 08:14:02;;;;;;;11.17;9.27;;;22.30;99.90;;;;;;4978273;28;20197;-79
2022/07/21 08:16:27;;;;;;;12.67;8.77;;;22.30;99.90;;;;;;4994091;28;20211;-80
2022/07/21 08:18:53;;;;;;;8.00;7.07;;;22.30;99.90;;;;;;4996566;28;20851;-78
2022/07/21 08:21:19;;;;;;;9.10;7.83;;;22.20;99.90;;;;;;4998434;28;20194;-78
2022/07/21 08:23:44;;;;;;;9.23;8.00;;;22.40;99.90;;;;;;4994198;28;20663;-77
2022/07/21 08:26:10;;;;;;;10.53;8.30;;;22.50;99.90;;;;;;5010535;28;20198;-77
2022/07/21 08:28:36;;;;;;;9.40;8.00;;;22.80;99.90;;;;;;5010668;28;20221;-78
2022/07/21 08:31:01;;;;;;;9.97;7.60;;;23.00;99.90;;;;;;4992749;28;20329;-77
2022/07/21 08:33:27;;;;;;;8.97;7.63;;;23.10;99.90;;;;;;5009783;28;20190;-77
2022/07/21 08:35:53;;;;;;;12.60;8.10;;;23.30;99.90;;;;;;4991922;28;20293;-77
2022/07/21 08:38:20;;;;;;;10.07;7.97;;;23.50;99.90;;;;;;5009242;28;20690;-77
2022/07/21 08:40:46;;;;;;;9.80;8.77;;;23.60;99.90;;;;;;5010209;28;20446;-78
2022/07/21 08:43:13;;;;;;;9.80;8.30;;;23.80;99.90;;;;;;4992445;28;21178;-77
2022/07/21 08:45:39;;;;;;;9.00;7.77;;;24.10;99.90;;;;;;4992651;28;20436;-78
2022/07/21 08:48:06;;;;;;;13.47;7.93;;;24.20;99.90;;;;;;4992206;28;20843;-77
2022/07/21 08:50:36;;;;;;;10.20;8.17;;;24.40;99.90;;;;;;4992289;28;20430;-78
2022/07/21 08:53:02;;;;;;;10.17;7.50;;;24.50;99.90;;;;;;4992774;28;20460;-77
2022/07/21 08:55:30;;;;;;;10.70;8.43;;;24.60;99.90;;;;;;5009781;28;20470;-77
2022/07/21 08:57:56;;;;;;;10.73;7.60;;;24.80;99.90;;;;;;4991555;28;20624;-77
2022/07/21 09:00:22;;;;;;;13.10;7.77;;;25.00;99.90;;;;;;5009638;28;20526;-77
2022/07/21 09:02:47;;;;;;;9.60;7.67;;;25.10;99.90;;;;;;5009922;28;20552;-77
2022/07/21 09:05:13;;;;;;;8.70;7.87;;;24.90;99.90;;;;;;4992003;28;20244;-77
2022/07/21 09:07:54;;;;;;;8.10;7.27;;;24.90;99.90;;;;;;4991658;28;20205;-76
2022/07/21 09:10:25;;;;;;;8.77;7.87;;;25.20;99.90;;;;;;5009004;28;20208;-77
2022/07/21 09:13:03;;;;;;;9.80;8.40;;;25.40;99.90;;;;;;4991534;28;20455;-76
2022/07/21 09:15:31;;;;;;;8.30;7.30;;;25.60;99.90;;;;;;4991087;28;21243;-77
2022/07/21 09:18:08;;;;;;;8.90;7.83;;;25.90;99.90;;;;;;5008945;28;20440;-77
2022/07/21 09:20:35;;;;;;;7.30;6.43;;;25.70;99.90;;;;;;5009082;28;20427;-77
2022/07/21 09:23:09;;;;;;;9.33;8.17;;;25.40;99.90;;;;;;4975327;28;20518;-77
2022/07/21 09:25:59;;;;;;;9.87;7.37;;;25.40;99.90;;;;;;5009076;28;20424;-77
2022/07/21 09:28:28;;;;;;;8.00;7.20;;;25.60;99.90;;;;;;4990877;28;20456;-77
2022/07/21 09:31:09;;;;;;;9.60;7.90;;;25.70;99.90;;;;;;5009015;28;20428;-77
2022/07/21 09:33:37;;;;;;;13.30;7.90;;;26.10;99.90;;;;;;5008809;28;20416;-77
2022/07/21 09:36:15;;;;;;;8.73;7.57;;;26.20;99.90;;;;;;4991015;28;20556;-77
2022/07/21 09:38:54;;;;;;;8.80;7.90;;;26.50;99.90;;;;;;5008627;28;20998;-77
2022/07/21 09:41:23;;;;;;;9.13;7.17;;;26.70;99.90;;;;;;4991528;28;20440;-77
2022/07/21 09:43:52;;;;;;;14.93;6.50;;;26.80;99.90;;;;;;5008641;28;20421;-77
2022/07/21 09:46:20;;;;;;;7.33;6.43;;;27.10;99.90;;;;;;5008317;28;20412;-77
2022/07/21 09:48:51;;;;;;;8.93;7.60;;;27.40;99.90;;;;;;5008627;28;20443;-77
2022/07/21 09:51:30;;;;;;;11.13;6.50;;;27.50;99.90;;;;;;5008452;28;20423;-77
2022/07/21 09:53:55;;;;;;;9.90;7.13;;;27.60;99.90;;;;;;4974530;28;20420;-77
2022/07/21 09:56:23;;;;;;;9.63;6.53;;;27.30;99.90;;;;;;5007753;28;20459;-77
2022/07/21 09:58:51;;;;;;;14.73;8.00;;;26.90;99.90;;;;;;5008281;28;20864;-77
2022/07/21 10:01:20;;;;;;;8.97;7.43;;;26.70;99.90;;;;;;5008597;28;20575;-77
2022/07/21 10:03:52;;;;;;;8.10;7.30;;;26.60;99.90;;;;;;4976977;28;20424;-78
2022/07/21 10:06:22;;;;;;;8.17;7.47;;;26.30;99.90;;;;;;5008778;28;20428;-77
2022/07/21 10:08:48;;;;;;;8.63;6.90;;;26.00;99.90;;;;;;5007822;28;20424;-76
2022/07/21 10:11:14;;;;;;;8.30;6.33;;;26.20;99.90;;;;;;4990159;28;20424;-77
2022/07/21 10:13:40;;;;;;;7.90;7.10;;;26.70;99.90;;;;;;4990001;28;20431;-77
2022/07/21 10:16:09;;;;;;;8.20;6.90;;;26.80;99.90;;;;;;4990005;28;20555;-76
2022/07/21 10:18:42;;;;;;;12.03;7.33;;;26.90;99.90;;;;;;5007806;28;20443;-77
2022/07/21 10:21:33;;;;;;;8.17;7.07;;;27.40;99.90;;;;;;5007738;28;20485;-76
2022/07/21 10:23:58;;;;;;;9.23;6.83;;;27.90;99.90;;;;;;5014091;28;20805;-77
2022/07/21 10:26:24;;;;;;;10.17;7.10;;;28.30;99.90;;;;;;4997402;28;20428;-77
2022/07/21 10:28:50;;;;;;;9.23;7.37;;;28.30;99.90;;;;;;5015271;28;20185;-77
2022/07/21 10:31:24;;;;;;;6.80;5.93;;;28.50;99.90;;;;;;5014620;28;20196;-77
2022/07/21 10:33:50;;;;;;;8.10;5.90;;;28.80;99.90;;;;;;4997777;28;20191;-77
2022/07/21 10:36:27;;;;;;;9.13;5.97;;;29.10;99.60;;;;;;5014834;28;20467;-77
2022/07/21 10:39:08;;;;;;;6.67;6.03;;;29.20;96.50;;;;;;5016190;28;20820;-77
2022/07/21 10:41:55;;;;;;;6.73;6.10;;;29.40;96.00;;;;;;5015975;28;20404;-77
2022/07/21 10:44:27;;;;;;;6.70;5.83;;;29.50;95.60;;;;;;4981955;28;20431;-77
2022/07/21 10:47:09;;;;;;;6.50;5.27;;;29.70;94.50;;;;;;5016404;28;20446;-77
2022/07/21 10:49:59;;;;;;;11.67;6.10;;;29.80;93.60;;;;;;5016502;28;20958;-77
2022/07/21 10:52:41;;;;;;;6.67;6.07;;;29.80;94.00;;;;;;4998780;28;20424;-77
2022/07/21 10:55:10;;;;;;;6.67;6.17;;;29.80;93.80;;;;;;5016581;28;20943;-77
2022/07/21 10:57:47;;;;;;;7.40;6.13;;;29.20;93.10;;;;;;4997980;28;20894;-77
2022/07/21 11:00:33;;;;;;;6.53;5.50;;;29.30;93.40;;;;;;4997727;28;20430;-77
2022/07/21 11:03:01;;;;;;;11.07;5.30;;;29.50;92.50;;;;;;4997370;28;20412;-77
2022/07/21 11:05:31;;;;;;;6.47;5.37;;;29.70;91.20;;;;;;5014483;28;20935;-77
2022/07/21 11:08:10;;;;;;;6.37;5.77;;;29.30;87.50;;;;;;5014410;28;20444;-77
2022/07/21 11:10:51;;;;;;;6.60;4.80;;;29.30;87.50;;;;;;5014749;28;20423;-77
2022/07/21 11:13:19;;;;;;;6.20;5.60;;;28.70;90.50;;;;;;4996823;28;20399;-77
2022/07/21 11:15:48;;;;;;;5.20;4.60;;;28.90;93.70;;;;;;4997455;28;20471;-77
2022/07/21 11:18:18;;;;;;;7.50;5.33;;;29.30;94.50;;;;;;5015184;28;20941;-77
2022/07/21 11:20:59;;;;;;;5.37;4.70;;;29.60;95.30;;;;;;5014526;28;20426;-77
2022/07/21 11:23:39;;;;;;;8.83;5.30;;;29.70;90.50;;;;;;5015234;28;20439;-76
2022/07/21 11:26:05;;;;;;;6.20;5.03;;;29.80;90.20;;;;;;4997548;28;20474;-77
2022/07/21 11:28:31;;;;;;;6.50;5.03;;;29.70;86.40;;;;;;5014959;28;20439;-77
2022/07/21 11:31:21;;;;;;;5.97;5.30;;;29.80;90.60;;;;;;4997899;28;20898;-77
2022/07/21 11:33:48;;;;;;;5.37;4.70;;;30.10;91.00;;;;;;4997229;28;20188;-77
2022/07/21 11:36:31;;;;;;;5.97;4.93;;;30.30;89.90;;;;;;4995238;28;20491;-77
2022/07/21 11:39:07;;;;;;;10.53;4.80;;;30.40;85.00;;;;;;5013064;28;20784;-77
2022/07/21 11:41:35;;;;;;;5.63;4.90;;;30.70;87.90;;;;;;4995894;28;20459;-77
2022/07/21 11:44:01;;;;;;;5.90;5.23;;;30.60;89.30;;;;;;5012330;28;20420;-75
2022/07/21 11:46:27;;;;;;;7.07;5.40;;;30.60;86.80;;;;;;4994374;28;20523;-76
2022/07/21 11:49:04;;;;;;;9.40;4.60;;;30.30;85.00;;;;;;5011971;28;20606;-76
2022/07/21 11:51:29;;;;;;;4.60;4.30;;;29.80;83.20;;;;;;5011924;28;20296;-76
2022/07/21 11:53:55;;;;;;;5.40;4.90;;;29.40;85.10;;;;;;4994062;28;20538;-76
2022/07/21 11:56:21;;;;;;;7.47;4.97;;;29.50;87.00;;;;;;5011390;28;20319;-76
2022/07/21 11:58:48;;;;;;;5.60;5.10;;;29.50;84.70;;;;;;4994481;28;20181;-76
2022/07/21 12:01:14;;;;;;;6.57;4.97;;;29.60;83.80;;;;;;5012305;28;20193;-75
2022/07/21 12:03:50;;;;;;;6.47;5.37;;;29.80;81.90;;;;;;4994982;28;20428;-75
2022/07/21 12:06:17;;;;;;;6.00;4.60;;;29.70;81.40;;;;;;4993999;28;20568;-76
2022/07/21 12:08:44;;;;;;;7.10;5.07;;;29.90;87.00;;;;;;4978389;28;20504;-75
2022/07/21 12:11:12;;;;;;;7.30;5.00;;;29.80;86.30;;;;;;5011560;28;20424;-75
2022/07/21 12:13:58;;;;;;;4.87;4.40;;;29.50;86.30;;;;;;5010861;28;20502;-76
2022/07/21 12:16:24;;;;;;;6.17;5.57;;;29.20;90.60;;;;;;5010481;28;20467;-75
2022/07/21 12:19:14;;;;;;;6.00;4.90;;;29.40;90.60;;;;;;5010143;28;20427;-76
2022/07/21 12:21:52;;;;;;;4.90;4.40;;;29.40;84.60;;;;;;4992532;28;20472;-76
2022/07/21 12:24:19;;;;;;;5.40;4.37;;;29.70;86.80;;;;;;4992048;28;20465;-76
2022/07/21 12:26:46;;;;;;;5.10;4.60;;;29.60;86.70;;;;;;5009871;28;20476;-76
2022/07/21 12:29:35;;;;;;;5.53;4.97;;;29.70;88.00;;;;;;4991783;28;21054;-76
2022/07/21 12:32:00;;;;;;;5.80;5.30;;;29.20;82.10;;;;;;5009457;28;20474;-76
2022/07/21 12:34:26;;;;;;;8.07;5.13;;;28.90;90.20;;;;;;4991653;28;20838;-76
2022/07/21 12:36:52;;;;;;;5.10;4.60;;;28.60;90.50;;;;;;5008947;28;20285;-76
2022/07/21 12:42:02;;;;;;;5.20;4.30;;;28.60;89.20;;;;;;5009295;28;20189;-76
2022/07/21 12:44:29;;;;;;;6.47;5.03;;;28.50;91.20;;;;;;4975250;28;20425;-77